Time;durP1;ratioP1;P1;durP2;ratioP2;P2;SDS_P1;SDS_P2;PMS_P1;PMS_P2;Temp;Humidity;BMP_temperature;BMP_pressure;BME280_temperature;BME280_humidity;BME280_pressure;Samples;Min_cycle;Max_cycle;Signal;HPM_P1;HPM_P2
2023/05/12 00:01:27;;;;;;;14.85;6.07;;;13.10;99.90;;;;;;4973617;28;20037;-52
2023/05/12 00:03:53;;;;;;;16.42;6.47;;;13.00;99.90;;;;;;4973889;28;20033;-50
2023/05/12 00:06:19;;;;;;;18.38;7.10;;;13.00;99.90;;;;;;4973708;28;20054;-53
2023/05/12 00:08:45;;;;;;;16.17;7.22;;;13.00;99.90;;;;;;4973921;28;20101;-52
2023/05/12 00:11:11;;;;;;;22.35;7.60;;;13.00;99.90;;;;;;4974014;28;20092;-51
2023/05/12 00:13:37;;;;;;;21.42;8.68;;;13.00;99.90;;;;;;4973492;28;20034;-50
2023/05/12 00:16:03;;;;;;;25.52;10.80;;;13.00;99.90;;;;;;4973742;28;20031;-50
2023/05/12 00:18:29;;;;;;;19.55;8.75;;;12.90;99.90;;;;;;4974018;28;20033;-50
2023/05/12 00:20:55;;;;;;;21.45;9.02;;;13.00;99.90;;;;;;4973410;28;20027;-50
2023/05/12 00:23:21;;;;;;;21.38;8.20;;;13.00;99.90;;;;;;4973900;28;20034;-52
2023/05/12 00:25:48;;;;;;;18.38;8.63;;;12.90;99.90;;;;;;4972549;28;20465;-52
2023/05/12 00:28:14;;;;;;;19.58;8.15;;;12.90;99.90;;;;;;4973451;28;20518;-50
2023/05/12 00:30:39;;;;;;;22.40;8.52;;;12.90;99.90;;;;;;4973408;28;20038;-50
2023/05/12 00:33:05;;;;;;;20.33;8.20;;;12.90;99.90;;;;;;4973402;28;20027;-49
2023/05/12 00:35:31;;;;;;;20.85;8.27;;;12.90;99.90;;;;;;4972454;28;20499;-50
2023/05/12 00:37:56;;;;;;;16.85;7.65;;;12.90;99.90;;;;;;4973505;28;20057;-50
2023/05/12 00:40:22;;;;;;;17.58;7.68;;;12.80;99.90;;;;;;4972117;28;20065;-50
2023/05/12 00:42:48;;;;;;;18.50;7.88;;;12.80;99.90;;;;;;4973256;28;20034;-52
2023/05/12 00:45:14;;;;;;;17.98;6.72;;;12.80;99.90;;;;;;4972282;28;20035;-50
2023/05/12 00:47:40;;;;;;;18.77;7.03;;;12.80;99.90;;;;;;4973558;28;20027;-50
2023/05/12 00:50:07;;;;;;;14.55;6.18;;;12.80;99.90;;;;;;4973334;28;20031;-52
2023/05/12 00:52:34;;;;;;;16.15;7.03;;;12.70;99.90;;;;;;4973336;28;20026;-50
2023/05/12 00:55:00;;;;;;;15.27;5.55;;;12.80;99.90;;;;;;4972077;28;20041;-51
2023/05/12 00:57:26;;;;;;;14.50;5.55;;;12.80;99.90;;;;;;4971924;28;20488;-51
2023/05/12 00:59:54;;;;;;;11.00;5.30;;;12.80;99.90;;;;;;4972062;28;20019;-53
2023/05/12 01:02:21;;;;;;;12.82;5.32;;;12.80;99.90;;;;;;4971295;28;20027;-50
2023/05/12 01:04:49;;;;;;;12.93;5.85;;;12.80;99.90;;;;;;4972303;28;20034;-50
2023/05/12 01:07:20;;;;;;;13.18;5.25;;;12.80;99.90;;;;;;4971917;28;20035;-49
2023/05/12 01:09:46;;;;;;;12.27;5.53;;;12.80;99.90;;;;;;4971679;28;20037;-50
2023/05/12 01:12:12;;;;;;;10.88;5.22;;;12.80;99.90;;;;;;4972766;28;20035;-50
2023/05/12 01:14:38;;;;;;;10.13;5.15;;;12.80;99.90;;;;;;4972789;28;20058;-49
2023/05/12 01:17:10;;;;;;;13.02;5.75;;;12.80;99.90;;;;;;4971561;28;20114;-50
2023/05/12 01:19:59;;;;;;;16.73;5.75;;;12.80;99.90;;;;;;4971748;28;20026;-50
2023/05/12 01:22:25;;;;;;;;;;;12.80;99.90;;;;;;4971712;28;20274;-52
2023/05/12 01:24:57;;;;;;;16.98;6.32;;;12.80;99.90;;;;;;4971416;28;19932;-50
2023/05/12 01:27:26;;;;;;;16.90;7.20;;;12.80;99.90;;;;;;4971504;28;20403;-49
2023/05/12 01:29:56;;;;;;;21.17;8.20;;;12.80;99.90;;;;;;4971611;28;20090;-50
2023/05/12 01:32:22;;;;;;;19.80;8.70;;;12.80;99.90;;;;;;4970938;28;20034;-49
2023/05/12 01:34:49;;;;;;;19.20;8.52;;;12.90;99.90;;;;;;4972364;28;20503;-50
2023/05/12 01:37:15;;;;;;;21.13;8.32;;;12.80;99.90;;;;;;4971210;28;20529;-51
2023/05/12 01:39:41;;;;;;;20.35;8.45;;;12.90;99.90;;;;;;4972439;28;20034;-49
2023/05/12 01:42:11;;;;;;;20.30;8.07;;;12.90;99.90;;;;;;4970645;28;20094;-49
2023/05/12 01:44:37;;;;;;;25.48;10.35;;;12.90;99.90;;;;;;4972740;28;20027;-50
2023/05/12 01:47:03;;;;;;;23.88;9.50;;;12.90;99.90;;;;;;4972456;28;20027;-50
2023/05/12 01:49:30;;;;;;;23.20;9.73;;;12.90;99.90;;;;;;4971018;28;20031;-49
2023/05/12 01:51:57;;;;;;;24.45;10.27;;;13.00;99.90;;;;;;4970450;28;20053;-49
2023/05/12 01:54:28;;;;;;;19.52;8.82;;;13.00;99.90;;;;;;4970956;28;20034;-50
2023/05/12 01:56:54;;;;;;;21.20;10.10;;;13.00;99.90;;;;;;4972192;28;20106;-53
2023/05/12 01:59:20;;;;;;;29.92;12.18;;;13.00;99.90;;;;;;4970962;28;20531;-50
2023/05/12 02:01:46;;;;;;;26.13;11.50;;;13.00;99.90;;;;;;4954385;28;20038;-51
2023/05/12 02:04:15;;;;;;;27.17;11.25;;;13.00;99.90;;;;;;4970763;28;20490;-50
2023/05/12 02:06:45;;;;;;;32.55;11.75;;;13.10;99.90;;;;;;4970725;28;20051;-51
2023/05/12 02:09:10;;;;;;;25.55;11.07;;;13.10;99.90;;;;;;4970764;28;20093;-53
2023/05/12 02:11:36;;;;;;;26.15;11.93;;;13.10;99.90;;;;;;4970465;28;20062;-49
2023/05/12 02:14:03;;;;;;;22.85;9.88;;;13.20;99.90;;;;;;4970898;28;20113;-50
2023/05/12 02:16:28;;;;;;;24.83;10.88;;;13.10;99.90;;;;;;4971140;28;20122;-50
2023/05/12 02:18:54;;;;;;;25.77;11.50;;;13.20;99.90;;;;;;4976087;28;20031;-49
2023/05/12 02:21:20;;;;;;;25.73;10.93;;;13.20;99.90;;;;;;4974306;28;20031;-49
2023/05/12 02:23:46;;;;;;;21.17;8.98;;;13.20;99.90;;;;;;4974514;28;20031;-48
2023/05/12 02:26:12;;;;;;;20.90;9.10;;;13.20;99.90;;;;;;4974609;28;20037;-48
2023/05/12 02:28:38;;;;;;;14.85;7.57;;;13.20;99.90;;;;;;4974535;28;20402;-49
2023/05/12 02:31:04;;;;;;;14.65;7.05;;;13.20;99.90;;;;;;4974097;28;20432;-52
2023/05/12 02:33:30;;;;;;;15.63;7.10;;;13.20;99.90;;;;;;4974325;28;20073;-49
2023/05/12 02:35:56;;;;;;;13.00;6.03;;;13.20;99.90;;;;;;4975664;28;20034;-49
2023/05/12 02:38:22;;;;;;;15.13;6.32;;;13.10;99.90;;;;;;4974193;28;20090;-49
2023/05/12 02:40:49;;;;;;;12.13;5.88;;;13.10;99.90;;;;;;4974033;28;20050;-48
2023/05/12 02:43:15;;;;;;;11.57;6.05;;;13.20;99.90;;;;;;4974092;28;20093;-48
2023/05/12 02:45:42;;;;;;;11.00;5.75;;;13.20;99.90;;;;;;4974076;28;20034;-49
2023/05/12 02:48:07;;;;;;;9.95;5.50;;;13.10;99.90;;;;;;4975376;28;20085;-49
2023/05/12 02:50:33;;;;;;;11.18;5.65;;;13.10;99.90;;;;;;4973973;28;20363;-50
2023/05/12 02:52:59;;;;;;;10.85;5.43;;;13.00;99.90;;;;;;4975331;28;20031;-52
2023/05/12 02:55:26;;;;;;;13.18;5.57;;;13.00;99.90;;;;;;4973931;28;20039;-49
2023/05/12 02:57:52;;;;;;;13.07;6.55;;;13.00;99.90;;;;;;4974075;28;20067;-49
2023/05/12 03:00:17;;;;;;;11.52;5.60;;;13.00;99.90;;;;;;4973469;28;20042;-49
2023/05/12 03:02:43;;;;;;;12.65;5.97;;;13.00;99.90;;;;;;4973702;28;20094;-51
2023/05/12 03:05:09;;;;;;;13.75;6.70;;;13.00;99.90;;;;;;4975037;28;20439;-49
2023/05/12 03:07:36;;;;;;;12.63;6.45;;;12.90;99.90;;;;;;4974499;28;20045;-49
2023/05/12 03:10:02;;;;;;;13.07;6.85;;;12.90;99.90;;;;;;4974257;28;20462;-52
2023/05/12 03:12:28;;;;;;;14.18;7.00;;;12.90;99.90;;;;;;4974636;28;20034;-51
2023/05/12 03:14:55;;;;;;;12.20;6.88;;;12.90;99.90;;;;;;4973653;28;20030;-52
2023/05/12 03:17:20;;;;;;;12.15;6.80;;;12.80;99.90;;;;;;4973608;28;20471;-50
2023/05/12 03:19:47;;;;;;;15.63;7.55;;;12.80;99.90;;;;;;4974077;28;20117;-49
2023/05/12 03:22:15;;;;;;;13.35;6.95;;;12.80;99.90;;;;;;4973335;28;20031;-52
2023/05/12 03:24:42;;;;;;;14.00;7.10;;;12.80;99.90;;;;;;4974830;28;20450;-53
2023/05/12 03:27:07;;;;;;;14.73;7.47;;;12.80;99.90;;;;;;4975063;28;20034;-49
2023/05/12 03:29:33;;;;;;;14.50;7.75;;;12.80;99.90;;;;;;4972176;28;20035;-50
2023/05/12 03:31:59;;;;;;;17.00;7.18;;;12.80;99.90;;;;;;4974264;28;20030;-50
2023/05/12 03:34:24;;;;;;;15.43;7.20;;;12.80;99.90;;;;;;4974733;28;20679;-50
2023/05/12 03:36:50;;;;;;;14.35;7.13;;;12.80;99.90;;;;;;4974622;28;20027;-52
2023/05/12 03:39:16;;;;;;;13.82;7.45;;;12.70;99.90;;;;;;4973413;28;20054;-51
2023/05/12 03:41:42;;;;;;;14.57;7.32;;;12.70;99.90;;;;;;4972869;28;20023;-52
2023/05/12 03:44:08;;;;;;;13.80;6.80;;;12.70;99.90;;;;;;4974611;28;20033;-52
2023/05/12 03:46:34;;;;;;;14.85;7.10;;;12.70;99.90;;;;;;4973077;28;20086;-50
2023/05/12 03:49:00;;;;;;;12.73;6.18;;;12.70;99.90;;;;;;4974541;28;20491;-49
2023/05/12 03:51:29;;;;;;;14.15;6.18;;;12.60;99.90;;;;;;4973945;28;20124;-50
2023/05/12 03:53:55;;;;;;;;;;;12.60;99.90;;;;;;4973636;28;20026;-49
2023/05/12 03:56:21;;;;;;;13.20;5.70;;;12.60;99.90;;;;;;4973463;28;20593;-49
2023/05/12 03:58:47;;;;;;;9.20;4.40;;;12.60;99.90;;;;;;4972889;28;20042;-53
2023/05/12 04:01:15;;;;;;;8.52;5.40;;;12.60;99.90;;;;;;4972315;28;20034;-51
2023/05/12 04:03:40;;;;;;;10.60;4.95;;;12.60;99.90;;;;;;4956636;28;20089;-49
2023/05/12 04:06:07;;;;;;;8.57;4.57;;;12.60;99.90;;;;;;4972555;28;20045;-50
2023/05/12 04:08:35;;;;;;;9.40;3.88;;;12.60;99.90;;;;;;4972528;28;20084;-51
2023/05/12 04:11:02;;;;;;;8.80;3.72;;;12.60;99.90;;;;;;4973568;28;20043;-51
2023/05/12 04:13:29;;;;;;;7.90;3.17;;;12.60;99.90;;;;;;4973589;28;20057;-49
2023/05/12 04:15:59;;;;;;;6.43;2.80;;;12.60;99.90;;;;;;4973908;28;20131;-49
2023/05/12 04:18:26;;;;;;;6.50;3.20;;;12.60;99.90;;;;;;4973687;28;20399;-50
2023/05/12 04:20:53;;;;;;;6.75;3.38;;;12.60;99.90;;;;;;4972021;28;20081;-49
2023/05/12 04:23:19;;;;;;;4.65;2.67;;;12.60;99.90;;;;;;4972092;28;20439;-49
2023/05/12 04:25:45;;;;;;;5.05;2.60;;;12.50;99.90;;;;;;4973513;28;20030;-50
2023/05/12 04:28:11;;;;;;;6.13;2.65;;;12.60;99.90;;;;;;4972312;28;20038;-49
2023/05/12 04:30:41;;;;;;;7.90;2.70;;;12.50;99.90;;;;;;4971896;28;20530;-50
2023/05/12 04:33:08;;;;;;;4.72;2.53;;;12.50;99.90;;;;;;4971942;28;20062;-50
2023/05/12 04:35:34;;;;;;;5.35;2.58;;;12.60;99.90;;;;;;4971923;28;20093;-49
2023/05/12 04:38:01;;;;;;;4.35;2.40;;;12.60;99.90;;;;;;4971958;28;20027;-49
2023/05/12 04:40:27;;;;;;;4.65;2.17;;;12.60;99.90;;;;;;4971278;28;20038;-49
2023/05/12 04:42:53;;;;;;;4.72;2.78;;;12.60;99.90;;;;;;4973303;28;20018;-49
2023/05/12 04:45:19;;;;;;;3.97;2.35;;;12.60;99.90;;;;;;4972059;28;20117;-49
2023/05/12 04:47:45;;;;;;;4.50;2.33;;;12.60;99.90;;;;;;4971924;28;20035;-50
2023/05/12 04:50:12;;;;;;;3.92;1.80;;;12.60;99.90;;;;;;4972928;28;20035;-51
2023/05/12 04:52:38;;;;;;;4.97;2.40;;;12.60;99.90;;;;;;4971737;28;20117;-52
2023/05/12 04:55:05;;;;;;;5.72;2.05;;;12.60;99.90;;;;;;4971602;28;20117;-52
2023/05/12 04:57:31;;;;;;;4.78;2.15;;;12.60;99.90;;;;;;4971814;28;20463;-53
2023/05/12 04:59:58;;;;;;;4.38;2.22;;;12.60;99.90;;;;;;4971988;28;20035;-49
2023/05/12 05:02:25;;;;;;;4.63;2.53;;;12.60;99.90;;;;;;4971393;28;20034;-52
2023/05/12 05:04:51;;;;;;;4.50;1.98;;;12.60;99.90;;;;;;4971649;28;20541;-50
2023/05/12 05:07:18;;;;;;;3.78;2.00;;;12.60;99.90;;;;;;4971620;28;20506;-52
2023/05/12 05:09:44;;;;;;;3.03;1.77;;;12.70;99.90;;;;;;4972912;28;20121;-49
2023/05/12 05:12:10;;;;;;;3.53;2.03;;;12.70;99.90;;;;;;4971009;28;20121;-53
2023/05/12 05:14:35;;;;;;;2.42;1.55;;;12.70;99.90;;;;;;4971522;28;20383;-49
2023/05/12 05:17:01;;;;;;;2.53;1.60;;;12.70;99.90;;;;;;4972850;28;20030;-53
2023/05/12 05:19:28;;;;;;;4.07;2.05;;;12.70;99.90;;;;;;4971654;28;20101;-49
2023/05/12 05:21:54;;;;;;;3.80;1.90;;;12.70;99.90;;;;;;4970949;28;20062;-49
2023/05/12 05:24:20;;;;;;;3.22;1.75;;;12.70;99.90;;;;;;4971595;28;20109;-49
2023/05/12 05:26:45;;;;;;;4.05;1.98;;;12.70;99.90;;;;;;4955545;28;20027;-50
2023/05/12 05:29:11;;;;;;;3.70;1.92;;;12.80;99.90;;;;;;4972706;28;20034;-50
2023/05/12 05:31:37;;;;;;;3.35;2.10;;;12.80;99.90;;;;;;4970837;28;20057;-50
2023/05/12 05:34:03;;;;;;;3.08;1.60;;;12.80;99.90;;;;;;4971132;28;20085;-49
2023/05/12 05:36:29;;;;;;;3.63;2.08;;;12.80;99.90;;;;;;4970975;28;20114;-52
2023/05/12 05:38:55;;;;;;;3.03;1.90;;;12.80;99.90;;;;;;4971146;28;20029;-50
2023/05/12 05:41:21;;;;;;;3.20;1.58;;;12.90;99.90;;;;;;4970682;28;20031;-50
2023/05/12 05:43:47;;;;;;;3.40;1.80;;;12.90;99.90;;;;;;4971066;28;20503;-50
2023/05/12 05:46:13;;;;;;;2.42;1.50;;;12.90;99.90;;;;;;4972294;28;20062;-49
2023/05/12 05:48:39;;;;;;;2.78;1.63;;;12.90;99.90;;;;;;4970837;28;20038;-51
2023/05/12 05:51:10;;;;;;;3.55;1.73;;;12.90;99.90;;;;;;4970023;28;20455;-49
2023/05/12 05:53:36;;;;;;;3.57;1.70;;;13.00;99.90;;;;;;4970650;28;20034;-52
2023/05/12 05:56:02;;;;;;;3.53;2.08;;;13.00;99.90;;;;;;4970778;28;20126;-50
2023/05/12 05:58:29;;;;;;;4.10;2.05;;;13.00;99.90;;;;;;4970715;28;20106;-49
2023/05/12 06:00:55;;;;;;;2.92;1.75;;;13.00;99.90;;;;;;4971991;28;20101;-51
2023/05/12 06:03:22;;;;;;;3.60;2.17;;;13.00;99.90;;;;;;4970651;28;20613;-50
2023/05/12 06:05:48;;;;;;;4.15;2.00;;;13.10;99.90;;;;;;4970528;28;20034;-53
2023/05/12 06:08:14;;;;;;;3.33;2.20;;;13.10;99.90;;;;;;4970726;28;20077;-50
2023/05/12 06:10:40;;;;;;;3.22;1.95;;;13.10;99.90;;;;;;4970604;28;20121;-51
2023/05/12 06:13:06;;;;;;;3.05;1.83;;;13.20;99.90;;;;;;4970423;28;20170;-49
2023/05/12 06:15:32;;;;;;;2.88;1.60;;;13.20;99.90;;;;;;4970514;28;20065;-49
2023/05/12 06:17:58;;;;;;;3.47;2.28;;;13.20;99.90;;;;;;4970599;28;20492;-52
2023/05/12 06:20:24;;;;;;;5.80;2.47;;;13.20;99.90;;;;;;4971614;28;20038;-49
2023/05/12 06:22:51;;;;;;;8.05;4.75;;;13.20;99.90;;;;;;4970482;28;20027;-50
2023/05/12 06:25:16;;;;;;;4.70;2.17;;;13.30;99.90;;;;;;4970562;28;20178;-51
2023/05/12 06:27:42;;;;;;;4.63;1.92;;;13.40;99.90;;;;;;4972107;28;20146;-49
2023/05/12 06:30:08;;;;;;;3.60;1.98;;;13.40;99.90;;;;;;4970403;28;20042;-49
2023/05/12 06:32:34;;;;;;;3.28;1.98;;;13.50;99.90;;;;;;4971402;28;20574;-49
2023/05/12 06:35:00;;;;;;;4.55;2.33;;;13.60;99.90;;;;;;4970321;28;20035;-49
2023/05/12 06:37:26;;;;;;;6.00;2.17;;;13.70;99.90;;;;;;4971651;28;20113;-51
2023/05/12 06:39:52;;;;;;;5.25;2.70;;;13.70;99.90;;;;;;4971639;28;20047;-50
2023/05/12 06:42:18;;;;;;;3.80;1.92;;;13.80;99.90;;;;;;4971121;28;20033;-49
2023/05/12 06:44:50;;;;;;;4.03;2.10;;;13.90;99.90;;;;;;4970366;28;20411;-49
2023/05/12 06:47:18;;;;;;;3.25;2.20;;;14.00;99.90;;;;;;4970121;28;20483;-50
2023/05/12 06:49:45;;;;;;;3.83;1.90;;;14.00;99.90;;;;;;4971473;28;20037;-50
2023/05/12 06:52:15;;;;;;;4.63;2.15;;;14.00;99.90;;;;;;4971075;28;20035;-50
2023/05/12 06:54:42;;;;;;;3.45;1.98;;;14.00;99.90;;;;;;4970245;28;20031;-49
2023/05/12 06:57:08;;;;;;;3.03;2.00;;;14.10;99.90;;;;;;4971577;28;20023;-51
2023/05/12 06:59:34;;;;;;;3.53;2.08;;;14.00;99.90;;;;;;4971535;28;20045;-50
2023/05/12 07:02:00;;;;;;;3.15;1.77;;;14.10;99.90;;;;;;4971305;28;20101;-50
2023/05/12 07:04:25;;;;;;;4.45;2.50;;;14.10;99.90;;;;;;4974730;28;20042;-53
2023/05/12 07:06:51;;;;;;;2.92;1.75;;;14.00;99.90;;;;;;4974932;28;20039;-49
2023/05/12 07:09:17;;;;;;;3.15;1.98;;;14.10;99.90;;;;;;4974998;28;20089;-51
2023/05/12 07:11:43;;;;;;;3.35;2.00;;;14.00;99.90;;;;;;4973157;28;20447;-49
2023/05/12 07:14:09;;;;;;;5.30;2.30;;;14.00;99.90;;;;;;4974769;28;20035;-51
2023/05/12 07:16:35;;;;;;;3.47;1.80;;;14.00;99.90;;;;;;4974738;28;20395;-50
2023/05/12 07:19:00;;;;;;;3.10;1.98;;;13.90;99.90;;;;;;4974737;28;20027;-50
2023/05/12 07:21:27;;;;;;;3.17;1.90;;;13.90;99.90;;;;;;4974247;28;20501;-50
2023/05/12 07:23:53;;;;;;;3.33;1.92;;;13.90;99.90;;;;;;4974682;28;20031;-50
2023/05/12 07:26:19;;;;;;;3.33;1.90;;;14.00;99.90;;;;;;4974662;28;20117;-50
2023/05/12 07:28:45;;;;;;;3.50;1.70;;;14.00;99.90;;;;;;4974532;28;20046;-50
2023/05/12 07:31:11;;;;;;;2.88;1.48;;;14.00;99.90;;;;;;4974037;28;20169;-49
2023/05/12 07:33:37;;;;;;;3.17;1.90;;;14.00;99.90;;;;;;4974203;28;20472;-50
2023/05/12 07:36:03;;;;;;;2.90;1.88;;;14.00;99.90;;;;;;4974440;28;20043;-50
2023/05/12 07:38:29;;;;;;;3.47;1.70;;;14.00;99.90;;;;;;4974292;28;20030;-51
2023/05/12 07:40:56;;;;;;;3.78;1.90;;;14.00;99.90;;;;;;4973996;28;20029;-50
2023/05/12 07:43:22;;;;;;;3.90;1.92;;;14.00;99.90;;;;;;4973958;28;20037;-49
2023/05/12 07:45:47;;;;;;;3.63;2.13;;;14.00;99.90;;;;;;4974159;28;20031;-50
2023/05/12 07:48:13;;;;;;;3.05;1.50;;;14.00;99.90;;;;;;4974385;28;20027;-49
2023/05/12 07:50:39;;;;;;;3.30;2.13;;;13.90;99.90;;;;;;4973697;28;20046;-49
2023/05/12 07:53:05;;;;;;;3.15;1.80;;;14.00;99.90;;;;;;4973690;28;20544;-49
2023/05/12 07:55:34;;;;;;;3.78;2.03;;;14.00;99.90;;;;;;4973885;28;20085;-49
2023/05/12 07:58:00;;;;;;;5.80;2.10;;;14.00;99.90;;;;;;4973859;28;20027;-50
2023/05/12 08:00:26;;;;;;;4.10;2.00;;;14.00;99.90;;;;;;4973538;28;20085;-50
2023/05/12 08:02:52;;;;;;;3.60;2.20;;;13.90;99.90;;;;;;4973675;28;20153;-50
2023/05/12 08:05:18;;;;;;;3.20;1.95;;;14.00;99.90;;;;;;4973949;28;20034;-50
2023/05/12 08:07:45;;;;;;;3.03;1.63;;;14.00;99.90;;;;;;4973656;28;20456;-50
2023/05/12 08:10:11;;;;;;;3.30;1.73;;;14.00;99.90;;;;;;4973560;28;20295;-49
2023/05/12 08:12:40;;;;;;;3.17;1.95;;;14.10;99.90;;;;;;4973477;28;20553;-50
2023/05/12 08:15:18;;;;;;;2.95;1.33;;;14.10;99.90;;;;;;4972912;28;21199;-49
2023/05/12 08:17:44;;;;;;;3.60;2.20;;;14.20;99.90;;;;;;4973650;28;20030;-50
2023/05/12 08:20:10;;;;;;;3.35;1.75;;;14.20;99.90;;;;;;4973763;28;20054;-50
2023/05/12 08:22:36;;;;;;;2.72;1.90;;;14.30;99.90;;;;;;4973382;28;20399;-51
2023/05/12 08:25:02;;;;;;;3.00;1.80;;;14.30;99.90;;;;;;4973610;28;20039;-49
2023/05/12 08:27:28;;;;;;;2.85;1.85;;;14.40;99.90;;;;;;4973188;28;20043;-50
2023/05/12 08:29:54;;;;;;;4.18;2.10;;;14.40;99.90;;;;;;4973352;28;20027;-49
2023/05/12 08:32:20;;;;;;;3.95;1.95;;;14.50;99.90;;;;;;4972852;28;20035;-49
2023/05/12 08:34:45;;;;;;;3.13;1.85;;;14.60;99.90;;;;;;4973085;28;20034;-49
2023/05/12 08:37:11;;;;;;;4.10;1.83;;;14.60;99.90;;;;;;4973251;28;20034;-49
2023/05/12 08:39:37;;;;;;;8.55;3.78;;;14.60;99.90;;;;;;4973290;28;20030;-51
2023/05/12 08:42:17;;;;;;;6.68;2.90;;;14.70;99.90;;;;;;4972492;28;20070;-50
2023/05/12 08:44:44;;;;;;;3.45;1.75;;;14.70;99.90;;;;;;4973413;28;20034;-49
2023/05/12 08:47:12;;;;;;;3.13;1.85;;;14.80;99.90;;;;;;4973022;28;20122;-49
2023/05/12 08:49:39;;;;;;;4.07;2.00;;;14.90;99.90;;;;;;4973466;28;20114;-49
2023/05/12 08:52:06;;;;;;;3.00;1.80;;;14.90;99.90;;;;;;4972387;28;20118;-50
2023/05/12 08:54:32;;;;;;;3.47;2.00;;;15.00;99.90;;;;;;4972771;28;20402;-49
2023/05/12 08:56:59;;;;;;;2.25;1.52;;;15.00;99.90;;;;;;4972874;28;20030;-49
2023/05/12 08:59:25;;;;;;;2.92;1.85;;;15.10;99.90;;;;;;4972782;28;20023;-49
2023/05/12 09:01:53;;;;;;;3.50;1.65;;;15.10;99.90;;;;;;4972228;28;20043;-50
2023/05/12 09:04:19;;;;;;;3.30;1.90;;;15.10;99.90;;;;;;4972745;28;20038;-50
2023/05/12 09:06:45;;;;;;;2.70;1.70;;;15.20;99.90;;;;;;4972594;28;20106;-50
2023/05/12 09:09:16;;;;;;;3.45;1.80;;;15.30;99.90;;;;;;4972947;28;20121;-50
2023/05/12 09:11:42;;;;;;;3.15;1.80;;;15.40;99.90;;;;;;4972216;28;20507;-51
2023/05/12 09:14:17;;;;;;;3.38;1.90;;;15.50;99.90;;;;;;4972396;28;20506;-52
2023/05/12 09:16:47;;;;;;;3.50;1.80;;;15.70;99.90;;;;;;4972807;28;20069;-52
2023/05/12 09:19:20;;;;;;;5.30;1.98;;;15.80;99.90;;;;;;4972887;28;20086;-49
2023/05/12 09:21:47;;;;;;;3.70;1.80;;;15.90;99.90;;;;;;4972161;28;20034;-51
2023/05/12 09:24:13;;;;;;;4.75;2.15;;;16.10;99.90;;;;;;4972717;28;20376;-52
2023/05/12 09:26:54;;;;;;;4.43;2.08;;;16.10;99.90;;;;;;4972370;28;20050;-50
2023/05/12 09:29:20;;;;;;;3.30;1.90;;;16.30;99.90;;;;;;4972417;28;20027;-49
2023/05/12 09:31:55;;;;;;;3.15;1.70;;;16.40;99.90;;;;;;4971888;28;20023;-50
2023/05/12 09:34:28;;;;;;;3.33;1.80;;;16.30;99.90;;;;;;4972195;28;20042;-50
2023/05/12 09:37:02;;;;;;;3.28;1.92;;;16.20;99.90;;;;;;4972540;28;20110;-51
2023/05/12 09:39:27;;;;;;;3.10;1.70;;;16.20;99.90;;;;;;4972392;28;20034;-50
2023/05/12 09:41:54;;;;;;;3.20;1.85;;;16.20;99.90;;;;;;4971634;28;20524;-50
2023/05/12 09:44:20;;;;;;;2.17;1.52;;;16.20;99.90;;;;;;4971994;28;20061;-50
2023/05/12 09:46:47;;;;;;;2.25;1.60;;;16.30;99.90;;;;;;4972526;28;20179;-53
2023/05/12 09:49:21;;;;;;;3.13;2.00;;;16.30;99.90;;;;;;4972238;28;20030;-53
2023/05/12 09:51:51;;;;;;;2.65;1.70;;;16.30;99.90;;;;;;4971938;28;20027;-53
2023/05/12 09:54:32;;;;;;;2.60;1.48;;;16.40;99.90;;;;;;4972287;28;20085;-53
2023/05/12 09:57:00;;;;;;;3.15;1.70;;;16.50;99.90;;;;;;4972341;28;20432;-53
2023/05/12 09:59:34;;;;;;;2.90;1.87;;;16.70;99.90;;;;;;4972602;28;20730;-50
2023/05/12 10:02:04;;;;;;;2.42;1.73;;;16.80;99.90;;;;;;4971712;28;20054;-51
2023/05/12 10:04:51;;;;;;;2.92;1.90;;;17.00;99.90;;;;;;4972288;28;20118;-50
2023/05/12 10:07:21;;;;;;;3.10;1.63;;;17.10;99.90;;;;;;4972060;28;20392;-50
2023/05/12 10:09:48;;;;;;;3.45;1.70;;;17.20;99.90;;;;;;4972384;28;20057;-51
2023/05/12 10:12:15;;;;;;;2.53;1.67;;;17.20;99.90;;;;;;4971564;28;20030;-51
2023/05/12 10:14:42;;;;;;;2.75;1.55;;;17.30;99.90;;;;;;4971757;28;20031;-51
2023/05/12 10:17:08;;;;;;;2.58;1.80;;;17.40;99.90;;;;;;4971906;28;20023;-52
2023/05/12 10:19:35;;;;;;;2.92;1.60;;;17.40;99.90;;;;;;4971901;28;20022;-50
2023/05/12 10:22:01;;;;;;;2.42;1.73;;;17.30;99.90;;;;;;4971278;28;20061;-49
2023/05/12 10:24:27;;;;;;;3.80;1.50;;;17.20;99.90;;;;;;4972166;28;20110;-50
2023/05/12 10:26:58;;;;;;;2.63;1.55;;;17.20;99.90;;;;;;4972036;28;20146;-49
2023/05/12 10:29:28;;;;;;;2.28;1.40;;;17.20;99.90;;;;;;4971945;28;20326;-49
2023/05/12 10:31:56;;;;;;;4.53;2.10;;;17.10;99.90;;;;;;4971157;28;20027;-50
2023/05/12 10:34:22;;;;;;;3.90;2.15;;;17.10;99.90;;;;;;4970242;28;20461;-53
2023/05/12 10:36:49;;;;;;;4.97;2.97;;;17.20;99.90;;;;;;4971741;28;20122;-49
2023/05/12 10:39:15;;;;;;;2.50;1.70;;;17.30;99.90;;;;;;4974906;28;20110;-49
2023/05/12 10:41:41;;;;;;;2.97;1.80;;;17.30;99.90;;;;;;4975452;28;20030;-51
2023/05/12 10:44:09;;;;;;;3.53;1.55;;;17.40;99.90;;;;;;4975303;28;20038;-51
2023/05/12 10:46:35;;;;;;;2.88;1.63;;;17.50;99.90;;;;;;4975346;28;20420;-53
2023/05/12 10:49:09;;;;;;;3.35;1.40;;;17.60;99.90;;;;;;4975269;28;20035;-52
2023/05/12 10:51:43;;;;;;;2.00;1.42;;;17.70;99.90;;;;;;4975053;28;20109;-51
2023/05/12 10:54:20;;;;;;;3.42;2.20;;;17.80;99.90;;;;;;4975327;28;20031;-51
2023/05/12 10:56:47;;;;;;;2.58;1.80;;;18.00;99.90;;;;;;4975391;28;20034;-51
2023/05/12 10:59:21;;;;;;;2.83;1.70;;;18.00;99.90;;;;;;4975256;28;20082;-52
2023/05/12 11:02:29;;;;;;;2.75;1.67;;;18.10;99.90;;;;;;4974758;28;20050;-51
2023/05/12 11:05:00;;;;;;;2.10;1.60;;;18.20;99.90;;;;;;4915028;29;20036;-49
2023/05/12 11:07:28;;;;;;;4.53;1.50;;;18.20;99.90;;;;;;4915041;29;20055;-51
2023/05/12 11:09:56;;;;;;;3.13;1.60;;;18.40;99.90;;;;;;4947589;28;20450;-51
2023/05/12 11:12:22;;;;;;;4.10;1.85;;;18.40;99.90;;;;;;4974435;28;20129;-51
2023/05/12 11:14:48;;;;;;;2.58;1.80;;;18.50;99.90;;;;;;4974663;28;20038;-50
2023/05/12 11:17:14;;;;;;;2.85;1.90;;;18.50;99.90;;;;;;4974776;28;20030;-54
2023/05/12 11:19:46;;;;;;;3.20;1.85;;;18.50;99.90;;;;;;4975058;28;20491;-53
2023/05/12 11:22:12;;;;;;;3.50;1.63;;;18.60;99.90;;;;;;4974382;28;20050;-50
2023/05/12 11:24:39;;;;;;;3.45;1.80;;;18.70;99.90;;;;;;4974917;28;20035;-54
2023/05/12 11:27:10;;;;;;;5.07;2.08;;;18.80;99.90;;;;;;4975071;28;20114;-50
2023/05/12 11:29:38;;;;;;;3.60;2.40;;;18.80;99.90;;;;;;4974661;28;20104;-49
2023/05/12 11:32:04;;;;;;;4.43;2.40;;;18.90;99.90;;;;;;4973858;28;20035;-49
2023/05/12 11:34:30;;;;;;;3.85;2.00;;;19.00;99.90;;;;;;4974299;28;20122;-49
2023/05/12 11:36:56;;;;;;;5.13;2.08;;;18.90;99.90;;;;;;4974205;28;20173;-52
2023/05/12 11:39:27;;;;;;;3.85;1.80;;;18.80;99.90;;;;;;4974287;28;20031;-49
2023/05/12 11:41:53;;;;;;;2.70;1.80;;;18.70;99.90;;;;;;4973963;28;20546;-49
2023/05/12 11:44:23;;;;;;;3.38;1.83;;;18.80;99.90;;;;;;4974544;28;20019;-54
2023/05/12 11:46:59;;;;;;;2.88;1.77;;;19.00;99.90;;;;;;4974254;28;20492;-51
2023/05/12 11:49:26;;;;;;;2.28;1.70;;;18.90;99.90;;;;;;4973029;28;20031;-53
2023/05/12 11:52:00;;;;;;;3.78;1.77;;;19.00;99.90;;;;;;4973885;28;20083;-50
2023/05/12 11:54:29;;;;;;;3.15;1.60;;;18.90;99.90;;;;;;4973934;28;20472;-51
2023/05/12 11:56:56;;;;;;;2.85;1.90;;;18.80;99.90;;;;;;4973986;28;20479;-51
2023/05/12 11:59:30;;;;;;;3.03;1.75;;;18.90;99.90;;;;;;4974126;28;20057;-54
2023/05/12 12:02:00;;;;;;;4.15;1.63;;;19.00;99.90;;;;;;4973577;28;20041;-51
2023/05/12 12:04:37;;;;;;;3.08;1.88;;;19.10;99.90;;;;;;4974204;28;20061;-53
2023/05/12 12:07:06;;;;;;;3.22;1.73;;;19.10;99.90;;;;;;4972524;28;20027;-53
2023/05/12 12:09:35;;;;;;;2.53;1.67;;;19.10;99.90;;;;;;4973954;28;20035;-52
2023/05/12 12:12:03;;;;;;;3.75;1.98;;;19.20;99.90;;;;;;4973402;28;20045;-50
2023/05/12 12:14:30;;;;;;;3.05;1.90;;;19.20;99.90;;;;;;4973716;28;20439;-52
2023/05/12 12:16:56;;;;;;;3.10;1.85;;;19.00;99.90;;;;;;4973643;28;20030;-50
2023/05/12 12:19:22;;;;;;;4.97;2.22;;;19.00;99.90;;;;;;4973733;28;20117;-52
2023/05/12 12:21:47;;;;;;;2.97;1.98;;;18.90;99.90;;;;;;4973170;28;20031;-51
2023/05/12 12:24:13;;;;;;;3.45;2.20;;;19.00;99.90;;;;;;4973617;28;20038;-51
2023/05/12 12:26:39;;;;;;;4.45;2.63;;;18.80;99.90;;;;;;4973468;28;20092;-50
2023/05/12 12:29:04;;;;;;;4.57;2.00;;;18.80;99.90;;;;;;4973387;28;20022;-54
2023/05/12 12:31:30;;;;;;;4.38;2.53;;;18.80;99.90;;;;;;4973204;28;20547;-52
2023/05/12 12:33:56;;;;;;;3.72;2.55;;;18.90;99.90;;;;;;4973391;28;20027;-50
2023/05/12 12:36:21;;;;;;;4.03;2.33;;;18.80;99.90;;;;;;4973470;28;20509;-50
2023/05/12 12:38:47;;;;;;;3.30;2.20;;;18.80;99.90;;;;;;4973393;28;20066;-50
2023/05/12 12:41:13;;;;;;;4.82;1.98;;;18.90;99.90;;;;;;4972803;28;20027;-53
2023/05/12 12:43:39;;;;;;;3.08;2.03;;;18.90;99.90;;;;;;4972931;28;20034;-51